Kezdőlap
METAR-TAF:

METAR-TAF

Repülőterek :

Detroit Lakes, Minnesota, Amerikai Egyesült Államok

földrajzi szélesség: 46-50N, földrajzi hosszúság: 095-53W, magasság: 426 m

Jelenlegi meteorológiai megfigyelések

A jelentés 18 perccel ezelõtt készült, 12:55 UTC
Északnyugati szél 4 kt
Hőmérséklet 18°C
Páratartalom 88%
Légköri nyomás 1014 hPa
Látótávolság: 16.1 km
Derült ég

METAR: KDTL 161255Z AUTO 32004KT 10SM CLR 18/16 A2993 RMK AO2

Idő: 08:13 (13:13 UTC)


TAF: hiányzik

Meteorológiai megfigyelések és előrejelzések több, mint 4000 repülőtéren (METAR és TAF jelentéseket).

A térképen piros és sárga pontok jelzik az elérhető meteorológiai állomásokat.

Mozgassa az egeret a pont fölött, hogy megjelenjen az állomás neve.

Azután kattintson az időjárási megfigyelések és előrejelzések megtekintéséhez.

A térkép megváltoztatása: kattintson a fekete keresztel jelölt zöld gombra ráközelítéshez, a vonallal jelölt zöld gombra távolításhoz, vagy a zöld nyilakra a szomszédos térképek eléréséhez.


METAR-TAF: